createdAt,value
2018-07-21T00:00:55.075Z,64.86
2018-07-21T00:01:55.056Z,64.95
2018-07-21T00:02:55.008Z,64.18
2018-07-21T00:03:54.942Z,64.95
2018-07-21T00:04:54.912Z,64.86
2018-07-21T00:05:54.840Z,64.95
2018-07-21T00:06:54.812Z,64.95
2018-07-21T00:07:54.767Z,64.86
2018-07-21T00:08:54.741Z,64.76
2018-07-21T00:09:54.679Z,65.14
2018-07-21T00:10:54.657Z,64.28
2018-07-21T00:11:54.807Z,64.28
2018-07-21T00:12:54.554Z,64.86
2018-07-21T00:13:54.494Z,64.37
2018-07-21T00:14:54.473Z,64.56
2018-07-21T00:15:54.411Z,64.47
2018-07-21T00:16:54.359Z,64.72
2018-07-21T00:17:54.315Z,64.76
2018-07-21T00:18:54.508Z,63.95
2018-07-21T00:19:54.243Z,64.24
2018-07-21T00:20:54.197Z,63.98
2018-07-21T00:21:54.148Z,64.08
2018-07-21T00:22:54.099Z,64.18
2018-07-21T00:23:54.067Z,63.95
2018-07-21T00:24:54.019Z,64.24
2018-07-21T00:25:53.943Z,64.05
2018-07-21T00:26:53.895Z,64.53
2018-07-21T00:27:53.880Z,65.20
2018-07-21T00:28:53.845Z,64.82
2018-07-21T00:29:53.795Z,65.30
2018-07-21T00:30:53.720Z,65.59
2018-07-21T00:31:53.716Z,65.59
2018-07-21T00:32:53.661Z,65.50
2018-07-21T00:33:53.605Z,65.69
2018-07-21T00:34:53.555Z,65.59
2018-07-21T00:35:53.534Z,65.88
2018-07-21T00:36:53.488Z,65.40
2018-07-21T00:37:53.441Z,65.98
2018-07-21T00:38:53.367Z,65.98
2018-07-21T00:39:53.348Z,66.17
2018-07-21T00:40:53.292Z,66.66
2018-07-21T00:41:53.229Z,66.66
2018-07-21T00:42:53.203Z,66.46
2018-07-21T00:43:53.179Z,66.27
2018-07-21T00:44:53.131Z,66.85
2018-07-21T00:45:53.053Z,66.56
2018-07-21T00:46:54.236Z,66.66
2018-07-21T00:47:52.980Z,66.66
2018-07-21T00:48:54.142Z,66.75
2018-07-21T00:49:52.904Z,66.85
2018-07-21T00:50:52.855Z,66.66
2018-07-21T00:51:53.018Z,67.04
2018-07-21T00:52:52.748Z,66.85
2018-07-21T00:53:52.725Z,67.52
2018-07-21T00:54:52.657Z,67.30
2018-07-21T00:55:52.624Z,67.78
2018-07-21T00:56:52.569Z,67.78
2018-07-21T00:57:52.550Z,67.78
2018-07-21T00:58:52.480Z,67.88
2018-07-21T00:59:52.434Z,67.68
2018-07-21T01:00:52.397Z,67.97
2018-07-21T01:01:52.348Z,67.33
2018-07-21T01:02:52.526Z,67.30
2018-07-21T01:03:52.278Z,67.43
2018-07-21T01:04:52.210Z,67.88
2018-07-21T01:05:52.186Z,67.91
2018-07-21T01:06:52.158Z,68.07
2018-07-21T01:07:52.306Z,67.04
2018-07-21T01:08:52.061Z,68.07
2018-07-21T01:09:51.976Z,67.91
2018-07-21T01:10:51.957Z,67.81
2018-07-21T01:11:51.891Z,68.01
2018-07-21T01:12:51.840Z,67.97
2018-07-21T01:13:51.823Z,67.43
2018-07-21T01:14:51.761Z,67.30
2018-07-21T01:15:51.742Z,67.97
2018-07-21T01:16:51.689Z,67.68
2018-07-21T01:17:51.629Z,67.88
2018-07-21T01:18:51.601Z,68.35
2018-07-21T01:19:51.560Z,67.97
2018-07-21T01:20:51.507Z,68.65
2018-07-21T01:21:51.473Z,67.68
2018-07-21T01:22:51.432Z,67.49
2018-07-21T01:23:51.362Z,67.88
2018-07-21T01:24:51.373Z,67.88
2018-07-21T01:25:51.251Z,67.49
2018-07-21T01:26:51.232Z,68.93
2018-07-21T01:27:51.202Z,68.55
2018-07-21T01:28:51.141Z,67.49
2018-07-21T01:29:51.093Z,67.68
2018-07-21T01:30:51.080Z,68.61
2018-07-21T01:31:51.217Z,68.74
2018-07-21T01:32:50.968Z,67.49
2018-07-21T01:33:50.914Z,67.78
2018-07-21T01:34:50.860Z,67.74
2018-07-21T01:35:50.814Z,68.90
2018-07-21T01:36:52.004Z,68.99
2018-07-21T01:37:50.748Z,68.52
2018-07-21T01:38:50.715Z,68.90
2018-07-21T01:39:50.622Z,68.84
2018-07-21T01:40:50.610Z,68.42
2018-07-21T01:41:50.568Z,68.90
2018-07-21T01:42:50.539Z,69.03
2018-07-21T01:43:50.458Z,68.93
2018-07-21T01:44:50.426Z,69.09
2018-07-21T01:45:50.366Z,68.80
2018-07-21T01:46:50.323Z,69.09
2018-07-21T01:47:50.312Z,68.42
2018-07-21T01:48:50.248Z,68.90
2018-07-21T01:49:50.211Z,68.71
2018-07-21T01:50:50.168Z,68.99
2018-07-21T01:51:50.317Z,69.48
2018-07-21T01:52:50.062Z,68.99
2018-07-21T01:53:50.036Z,69.09
2018-07-21T01:54:49.969Z,68.90
2018-07-21T01:55:49.932Z,69.38
2018-07-21T01:56:49.890Z,69.77
2018-07-21T01:57:49.822Z,69.48
2018-07-21T01:58:49.779Z,69.77
2018-07-21T01:59:49.738Z,69.77
2018-07-21T02:00:49.694Z,69.77
2018-07-21T02:01:49.668Z,69.57
2018-07-21T02:02:49.614Z,69.77
2018-07-21T02:03:49.537Z,69.48
2018-07-21T02:04:49.493Z,69.77
2018-07-21T02:05:49.461Z,69.57
2018-07-21T02:06:49.450Z,69.57
2018-07-21T02:07:49.371Z,69.87
2018-07-21T02:08:49.334Z,69.96
2018-07-21T02:09:49.280Z,71.02
2018-07-21T02:10:49.462Z,70.83
2018-07-21T02:11:49.190Z,71.02
2018-07-21T02:12:49.132Z,70.25
2018-07-21T02:13:49.105Z,70.70
2018-07-21T02:14:49.258Z,71.02
2018-07-21T02:15:49.020Z,70.73
2018-07-21T02:16:48.987Z,70.15
2018-07-21T02:17:48.921Z,70.83
2018-07-21T02:18:48.877Z,71.12
2018-07-21T02:19:48.834Z,70.25
2018-07-21T02:20:48.814Z,70.70
2018-07-21T02:21:48.718Z,70.83
2018-07-21T02:22:48.700Z,70.73
2018-07-21T02:23:48.676Z,70.70
2018-07-21T02:24:49.816Z,71.41
2018-07-21T02:25:48.561Z,71.08
2018-07-21T02:26:48.539Z,71.08
2018-07-21T02:27:48.509Z,70.89
2018-07-21T02:28:48.623Z,71.02
2018-07-21T02:29:48.392Z,70.83
2018-07-21T02:30:48.361Z,71.31
2018-07-21T02:31:48.302Z,71.31
2018-07-21T02:32:48.239Z,71.12
2018-07-21T02:33:48.206Z,70.98
2018-07-21T02:34:48.155Z,70.89
2018-07-21T02:35:48.101Z,71.18
2018-07-21T02:36:48.065Z,71.18
2018-07-21T02:37:48.040Z,71.08
2018-07-21T02:38:47.975Z,71.08
2018-07-21T02:39:47.922Z,71.56
2018-07-21T02:40:49.100Z,71.76
2018-07-21T02:41:47.866Z,71.18
2018-07-21T02:42:47.787Z,71.47
2018-07-21T02:43:47.751Z,71.56
2018-07-21T02:44:47.720Z,71.66
2018-07-21T02:45:47.686Z,71.56
2018-07-21T02:46:47.625Z,71.37
2018-07-21T02:47:47.561Z,71.08
2018-07-21T02:48:47.514Z,71.08
2018-07-21T02:49:47.493Z,71.08
2018-07-21T02:50:47.442Z,71.37
2018-07-21T02:51:47.376Z,71.76
2018-07-21T02:52:47.341Z,71.76
2018-07-21T02:53:47.293Z,70.89
2018-07-21T02:54:48.453Z,71.66
2018-07-21T02:55:47.202Z,71.66
2018-07-21T02:56:47.161Z,71.76
2018-07-21T02:57:47.112Z,71.37
2018-07-21T02:58:47.059Z,71.37
2018-07-21T02:59:47.039Z,71.76
2018-07-21T03:00:46.990Z,72.43
2018-07-21T03:01:46.944Z,72.24
2018-07-21T03:02:46.908Z,71.56
2018-07-21T03:03:46.840Z,71.47
2018-07-21T03:04:46.803Z,71.95
2018-07-21T03:05:46.768Z,71.76
2018-07-21T03:06:46.683Z,71.66
2018-07-21T03:07:46.653Z,71.76
2018-07-21T03:08:46.613Z,71.53
2018-07-21T03:09:46.555Z,71.47
2018-07-21T03:10:46.520Z,72.24
2018-07-21T03:11:46.482Z,72.59
2018-07-21T03:12:46.449Z,72.01
2018-07-21T03:13:46.386Z,72.20
2018-07-21T03:14:46.335Z,71.43
2018-07-21T03:15:46.292Z,71.53
2018-07-21T03:16:46.251Z,71.53
2018-07-21T03:17:46.195Z,71.91
2018-07-21T03:18:46.160Z,71.72
2018-07-21T03:19:46.334Z,71.72
2018-07-21T03:20:46.062Z,71.43
2018-07-21T03:21:46.022Z,71.72
2018-07-21T03:22:46.170Z,71.53
2018-07-21T03:23:45.951Z,72.11
2018-07-21T03:24:45.880Z,72.78
2018-07-21T03:25:45.858Z,72.11
2018-07-21T03:26:45.795Z,72.11
2018-07-21T03:27:45.765Z,71.81
2018-07-21T03:28:45.703Z,71.91
2018-07-21T03:29:45.673Z,73.07
2018-07-21T03:30:45.685Z,72.78
2018-07-21T03:31:45.584Z,73.32
2018-07-21T03:32:45.516Z,73.26
2018-07-21T03:33:45.456Z,73.03
2018-07-21T03:34:45.457Z,72.55
2018-07-21T03:35:45.387Z,73.07
2018-07-21T03:36:45.344Z,73.16
2018-07-21T03:37:45.307Z,73.16
2018-07-21T03:38:45.245Z,73.26
2018-07-21T03:39:45.215Z,73.61
2018-07-21T03:40:45.158Z,72.97
2018-07-21T03:41:45.124Z,73.13
2018-07-21T03:42:45.062Z,73.32
2018-07-21T03:43:45.042Z,73.61
2018-07-21T03:44:44.993Z,74.09
2018-07-21T03:45:44.931Z,74.48
2018-07-21T03:46:44.884Z,74.29
2018-07-21T03:47:44.849Z,74.86
2018-07-21T03:48:44.805Z,74.38
2018-07-21T03:49:44.748Z,75.05
2018-07-21T03:50:44.711Z,75.15
2018-07-21T03:51:44.873Z,74.86
2018-07-21T03:52:44.631Z,74.51
2018-07-21T03:53:44.576Z,74.61
2018-07-21T03:54:44.505Z,74.38
2018-07-21T03:55:44.470Z,74.09
2018-07-21T03:56:44.445Z,74.48
2018-07-21T03:57:44.377Z,74.96
2018-07-21T03:58:44.349Z,74.67
2018-07-21T03:59:44.283Z,75.05
2018-07-21T04:00:44.246Z,74.86
2018-07-21T04:01:44.201Z,74.29
2018-07-21T04:02:44.189Z,74.48
2018-07-21T04:03:44.118Z,74.57
2018-07-21T04:04:44.279Z,74.19
2018-07-21T04:05:44.019Z,74.67
2018-07-21T04:06:43.973Z,73.90
2018-07-21T04:07:43.928Z,74.86
2018-07-21T04:08:43.876Z,74.38
2018-07-21T04:09:43.857Z,75.11
2018-07-21T04:10:43.802Z,74.82
2018-07-21T04:11:43.739Z,74.73
2018-07-21T04:12:43.700Z,74.67
2018-07-21T04:13:43.654Z,75.05
2018-07-21T04:14:43.602Z,75.05
2018-07-21T04:15:43.578Z,74.67
2018-07-21T04:16:43.532Z,74.67
2018-07-21T04:17:43.468Z,74.67
2018-07-21T04:18:43.440Z,74.48
2018-07-21T04:19:43.374Z,74.67
2018-07-21T04:20:43.331Z,74.76
2018-07-21T04:21:43.305Z,75.05
2018-07-21T04:22:43.242Z,74.48
2018-07-21T04:23:43.211Z,74.48
2018-07-21T04:24:43.127Z,75.24
2018-07-21T04:25:43.087Z,75.02
2018-07-21T04:26:43.072Z,75.40
2018-07-21T04:27:43.023Z,76.07
2018-07-21T04:28:42.996Z,76.07
2018-07-21T04:29:42.903Z,75.49
2018-07-21T04:30:42.876Z,75.88
2018-07-21T04:31:42.846Z,75.92
2018-07-21T04:32:42.790Z,75.69
2018-07-21T04:33:42.741Z,75.69
2018-07-21T04:34:42.694Z,75.59
2018-07-21T04:35:42.663Z,75.49
2018-07-21T04:36:42.823Z,75.59
2018-07-21T04:37:42.552Z,76.26
2018-07-21T04:38:42.526Z,76.75
2018-07-21T04:39:42.471Z,76.94
2018-07-21T04:40:42.420Z,77.04
2018-07-21T04:41:42.586Z,77.13
2018-07-21T04:42:42.323Z,76.75
2018-07-21T04:43:42.276Z,76.94
2018-07-21T04:44:42.253Z,78.09
2018-07-21T04:45:42.185Z,78.38
2018-07-21T04:46:42.165Z,78.09
2018-07-21T04:47:42.099Z,77.90
2018-07-21T04:48:42.040Z,78.00
2018-07-21T04:49:42.009Z,77.42
2018-07-21T04:50:41.973Z,77.13
2018-07-21T04:51:41.934Z,77.13
2018-07-21T04:52:41.851Z,77.23
2018-07-21T04:53:41.828Z,77.51
2018-07-21T04:54:41.780Z,77.23
2018-07-21T04:55:41.728Z,77.23
2018-07-21T04:56:41.687Z,78.09
2018-07-21T04:57:41.639Z,77.04
2018-07-21T04:58:41.589Z,77.61
2018-07-21T04:59:41.569Z,77.23
2018-07-21T05:00:41.582Z,77.61
2018-07-21T05:01:41.469Z,77.51
2018-07-21T05:02:41.403Z,77.23
2018-07-21T05:03:41.375Z,77.48
2018-07-21T05:04:41.319Z,77.51
2018-07-21T05:05:41.248Z,77.51
2018-07-21T05:06:41.242Z,77.33
2018-07-21T05:07:41.198Z,76.65
2018-07-21T05:08:41.132Z,76.75
2018-07-21T05:09:41.071Z,76.17
2018-07-21T05:10:41.060Z,76.36
2018-07-21T05:11:41.015Z,76.65
2018-07-21T05:12:40.957Z,76.14
2018-07-21T05:13:40.901Z,76.17
2018-07-21T05:14:40.855Z,75.88
2018-07-21T05:15:40.824Z,76.46
2018-07-21T05:16:40.774Z,76.36
2018-07-21T05:17:40.716Z,76.36
2018-07-21T05:18:40.672Z,76.26
2018-07-21T05:19:40.635Z,76.46
2018-07-21T05:20:40.597Z,77.23
2018-07-21T05:21:40.541Z,77.61
2018-07-21T05:22:40.499Z,77.61
2018-07-21T05:23:40.456Z,78.09
2018-07-21T05:24:40.393Z,78.06
2018-07-21T05:25:40.373Z,79.11
2018-07-21T05:26:40.325Z,78.44
2018-07-21T05:27:40.275Z,79.02
2018-07-21T05:28:40.223Z,78.77
2018-07-21T05:29:40.199Z,78.77
2018-07-21T05:30:40.127Z,79.11
2018-07-21T05:31:40.097Z,78.92
2018-07-21T05:32:40.042Z,79.02
2018-07-21T05:33:40.008Z,78.73
2018-07-21T05:34:39.939Z,79.02
2018-07-21T05:35:39.897Z,78.92
2018-07-21T05:36:39.847Z,79.02
2018-07-21T05:37:39.807Z,79.02
2018-07-21T05:38:39.772Z,78.53
2018-07-21T05:39:39.711Z,78.44
2018-07-21T05:40:39.666Z,78.83
2018-07-21T05:41:39.636Z,78.63
2018-07-21T05:42:39.589Z,78.83
2018-07-21T05:43:39.542Z,78.92
2018-07-21T05:44:39.489Z,79.30
2018-07-21T05:45:39.445Z,79.79
2018-07-21T05:46:39.402Z,79.60
2018-07-21T05:47:39.340Z,79.60
2018-07-21T05:48:39.316Z,79.30
2018-07-21T05:49:39.245Z,79.60
2018-07-21T05:50:39.202Z,78.83
2018-07-21T05:51:39.173Z,79.02
2018-07-21T05:52:39.115Z,78.25
2018-07-21T05:53:39.069Z,78.25
2018-07-21T05:54:39.076Z,78.73
2018-07-21T05:55:38.977Z,78.06
2018-07-21T05:56:38.934Z,78.06
2018-07-21T05:57:38.887Z,77.19
2018-07-21T05:58:38.853Z,78.06
2018-07-21T05:59:38.775Z,77.76
2018-07-21T06:00:38.743Z,78.63
2018-07-21T06:01:38.695Z,77.96
2018-07-21T06:02:38.669Z,77.58
2018-07-21T06:03:38.622Z,78.25
2018-07-21T06:04:38.576Z,78.25
2018-07-21T06:05:38.521Z,77.86
2018-07-21T06:06:38.466Z,78.15
2018-07-21T06:07:38.417Z,77.96
2018-07-21T06:08:38.405Z,77.96
2018-07-21T06:09:38.331Z,77.96
2018-07-21T06:10:38.303Z,78.06
2018-07-21T06:11:38.237Z,78.63
2018-07-21T06:12:38.174Z,78.25
2018-07-21T06:13:38.145Z,78.15
2018-07-21T06:14:38.112Z,77.96
2018-07-21T06:15:38.087Z,77.76
2018-07-21T06:16:38.017Z,79.02
2018-07-21T06:17:37.978Z,78.73
2018-07-21T06:18:37.941Z,78.34
2018-07-21T06:19:37.874Z,78.92
2018-07-21T06:20:37.833Z,79.11
2018-07-21T06:21:37.787Z,79.11
2018-07-21T06:22:37.735Z,79.69
2018-07-21T06:23:37.691Z,79.79
2018-07-21T06:24:37.631Z,79.88
2018-07-21T06:25:37.610Z,79.11
2018-07-21T06:26:37.582Z,80.04
2018-07-21T06:27:37.519Z,79.69
2018-07-21T06:28:37.470Z,79.60
2018-07-21T06:29:37.420Z,80.32
2018-07-21T06:30:37.373Z,79.46
2018-07-21T06:31:37.327Z,79.79
2018-07-21T06:32:37.271Z,78.69
2018-07-21T06:33:37.210Z,79.98
2018-07-21T06:34:37.198Z,79.02
2018-07-21T06:35:37.197Z,78.34
2018-07-21T06:36:37.097Z,78.53
2018-07-21T06:37:37.064Z,78.92
2018-07-21T06:38:37.008Z,79.65
2018-07-21T06:39:36.968Z,78.88
2018-07-21T06:40:36.914Z,78.78
2018-07-21T06:41:36.855Z,79.46
2018-07-21T06:42:36.796Z,79.65
2018-07-21T06:43:36.762Z,79.65
2018-07-21T06:44:36.717Z,79.17
2018-07-21T06:45:36.685Z,78.98
2018-07-21T06:46:36.646Z,79.17
2018-07-21T06:47:36.590Z,78.88
2018-07-21T06:48:36.538Z,79.17
2018-07-21T06:49:36.541Z,79.17
2018-07-21T06:50:36.440Z,79.46
2018-07-21T06:51:36.407Z,79.46
2018-07-21T06:52:36.369Z,79.84
2018-07-21T06:53:36.303Z,79.75
2018-07-21T06:54:36.282Z,80.04
2018-07-21T06:55:36.208Z,80.04
2018-07-21T06:56:36.150Z,79.94
2018-07-21T06:57:36.119Z,79.94
2018-07-21T06:58:36.079Z,79.84
2018-07-21T06:59:36.040Z,80.04
2018-07-21T07:00:35.997Z,79.94
2018-07-21T07:01:35.940Z,79.55
2018-07-21T07:02:35.911Z,79.94
2018-07-21T07:03:35.858Z,79.17
2018-07-21T07:04:35.819Z,78.88
2018-07-21T07:05:35.750Z,79.55
2018-07-21T07:06:35.720Z,79.46
2018-07-21T07:07:35.673Z,78.98
2018-07-21T07:08:35.613Z,78.83
2018-07-21T07:09:35.575Z,79.07
2018-07-21T07:10:35.531Z,79.17
2018-07-21T07:11:35.501Z,79.55
2018-07-21T07:12:35.431Z,79.84
2018-07-21T07:13:35.386Z,79.75
2018-07-21T07:14:35.336Z,80.13
2018-07-21T07:15:35.289Z,79.94
2018-07-21T07:16:35.255Z,80.22
2018-07-21T07:17:35.207Z,79.84
2018-07-21T07:18:35.161Z,80.51
2018-07-21T07:19:35.109Z,79.94
2018-07-21T07:20:35.065Z,80.42
2018-07-21T07:21:35.022Z,79.94
2018-07-21T07:22:34.964Z,79.75
2018-07-21T07:23:34.930Z,80.13
2018-07-21T07:25:34.837Z,80.22
2018-07-21T07:26:34.792Z,80.32
2018-07-21T07:27:34.848Z,80.51
2018-07-21T07:28:34.705Z,80.42
2018-07-21T07:29:34.643Z,80.51
2018-07-21T07:30:34.604Z,80.22
2018-07-21T07:31:34.555Z,80.22
2018-07-21T07:32:34.522Z,79.84
2018-07-21T07:33:34.475Z,79.94
2018-07-21T07:34:34.412Z,80.22
2018-07-21T07:35:34.365Z,79.84
2018-07-21T07:36:34.319Z,80.32
2018-07-21T07:37:34.272Z,80.04
2018-07-21T07:38:34.242Z,80.22
2018-07-21T07:39:34.209Z,79.94
2018-07-21T07:40:34.135Z,80.61
2018-07-21T07:41:34.102Z,80.42
2018-07-21T07:42:34.059Z,80.51
2018-07-21T07:43:34.014Z,80.61
2018-07-21T07:44:33.962Z,80.51
2018-07-21T07:45:33.896Z,80.90
2018-07-21T07:46:33.876Z,80.42
2018-07-21T07:47:33.808Z,80.51
2018-07-21T07:48:33.777Z,80.32
2018-07-21T07:49:33.736Z,79.94
2018-07-21T07:50:33.673Z,80.51
2018-07-21T07:51:33.612Z,80.90
2018-07-21T07:52:33.593Z,80.96
2018-07-21T07:53:33.643Z,81.19
2018-07-21T07:54:33.494Z,81.28
2018-07-21T07:55:33.468Z,80.42
2018-07-21T07:56:33.407Z,80.86
2018-07-21T07:57:33.346Z,81.05
2018-07-21T07:58:33.312Z,81.24
2018-07-21T07:59:33.269Z,81.19
2018-07-21T08:00:33.265Z,81.28
2018-07-21T08:01:33.172Z,81.19
2018-07-21T08:02:33.125Z,80.71
2018-07-21T08:03:33.078Z,80.71
2018-07-21T08:04:33.034Z,80.51
2018-07-21T08:05:32.996Z,80.80
2018-07-21T08:06:32.949Z,80.38
2018-07-21T08:07:32.892Z,80.96
2018-07-21T08:08:32.853Z,80.66
2018-07-21T08:09:32.802Z,81.34
2018-07-21T08:10:32.764Z,80.96
2018-07-21T08:11:32.731Z,80.66
2018-07-21T08:12:32.663Z,80.19
2018-07-21T08:13:32.623Z,80.66
2018-07-21T08:14:32.574Z,81.92
2018-07-21T08:15:32.505Z,82.01
2018-07-21T08:16:32.476Z,81.72
2018-07-21T08:17:32.443Z,83.07
2018-07-21T08:18:32.395Z,82.40
2018-07-21T08:19:32.456Z,82.68
2018-07-21T08:20:32.295Z,82.40
2018-07-21T08:21:32.255Z,82.20
2018-07-21T08:22:32.204Z,82.30
2018-07-21T08:23:32.159Z,81.63
2018-07-21T08:24:32.114Z,81.82
2018-07-21T08:25:32.056Z,82.01
2018-07-21T08:26:32.016Z,80.76
2018-07-21T08:27:31.984Z,81.24
2018-07-21T08:28:31.926Z,81.34
2018-07-21T08:29:31.878Z,81.43
2018-07-21T08:30:31.806Z,81.72
2018-07-21T08:31:31.794Z,81.05
2018-07-21T08:32:31.742Z,80.86
2018-07-21T08:33:31.694Z,80.66
2018-07-21T08:34:31.704Z,80.86
2018-07-21T08:35:31.612Z,81.15
2018-07-21T08:36:31.575Z,80.66
2018-07-21T08:37:31.508Z,81.72
2018-07-21T08:38:31.464Z,81.82
2018-07-21T08:39:31.408Z,82.30
2018-07-21T08:40:31.377Z,81.92
2018-07-21T08:41:31.306Z,82.10
2018-07-21T08:42:31.256Z,82.40
2018-07-21T08:43:31.237Z,82.30
2018-07-21T08:44:31.190Z,82.49
2018-07-21T08:45:31.135Z,82.59
2018-07-21T08:46:31.093Z,82.20
2018-07-21T08:47:31.048Z,81.72
2018-07-21T08:48:30.991Z,81.82
2018-07-21T08:49:30.955Z,82.30
2018-07-21T08:50:30.911Z,81.63
2018-07-21T08:51:30.862Z,82.01
2018-07-21T08:52:30.805Z,82.30
2018-07-21T08:53:30.768Z,82.30
2018-07-21T08:54:30.737Z,82.78
2018-07-21T08:55:30.673Z,82.01
2018-07-21T08:56:30.637Z,82.49
2018-07-21T08:57:30.573Z,82.01
2018-07-21T08:58:30.519Z,82.10
2018-07-21T08:59:30.502Z,81.82
2018-07-21T09:00:30.441Z,81.63
2018-07-21T09:01:30.385Z,82.40
2018-07-21T09:02:30.342Z,82.10
2018-07-21T09:03:30.312Z,82.20
2018-07-21T09:04:30.260Z,82.20
2018-07-21T09:05:30.217Z,82.20
2018-07-21T09:06:30.156Z,82.68
2018-07-21T09:07:30.111Z,82.97
2018-07-21T09:08:30.088Z,82.68
2018-07-21T09:09:30.024Z,82.84
2018-07-21T09:10:29.972Z,82.49
2018-07-21T09:11:29.936Z,82.68
2018-07-21T09:12:29.878Z,82.68
2018-07-21T09:13:29.837Z,82.49
2018-07-21T09:14:29.788Z,82.87
2018-07-21T09:15:29.739Z,82.87
2018-07-21T09:16:29.692Z,83.07
2018-07-21T09:17:29.647Z,82.87
2018-07-21T09:18:29.585Z,83.12
2018-07-21T09:19:29.554Z,83.03
2018-07-21T09:20:29.526Z,82.84
2018-07-21T09:21:29.497Z,82.84
2018-07-21T09:22:29.432Z,83.60
2018-07-21T09:23:29.385Z,83.51
2018-07-21T09:24:29.335Z,82.97
2018-07-21T09:25:29.267Z,82.59
2018-07-21T09:26:29.229Z,82.59
2018-07-21T09:27:29.193Z,83.07
2018-07-21T09:28:29.157Z,82.87
2018-07-21T09:29:29.114Z,82.54
2018-07-21T09:30:29.044Z,83.12
2018-07-21T09:31:29.019Z,83.03
2018-07-21T09:32:28.967Z,83.12
2018-07-21T09:33:28.887Z,83.12
2018-07-21T09:34:28.858Z,82.84
2018-07-21T09:35:28.824Z,83.80
2018-07-21T09:36:28.775Z,83.80
2018-07-21T09:37:28.743Z,82.93
2018-07-21T09:38:28.686Z,83.03
2018-07-21T09:39:28.632Z,82.93
2018-07-21T09:40:28.579Z,83.26
2018-07-21T09:41:28.560Z,82.97
2018-07-21T09:42:28.485Z,82.59
2018-07-21T09:43:28.440Z,82.59
2018-07-21T09:44:28.410Z,82.20
2018-07-21T09:45:28.340Z,81.92
2018-07-21T09:46:28.314Z,82.30
2018-07-21T09:47:28.281Z,82.68
2018-07-21T09:48:28.210Z,82.93
2018-07-21T09:49:28.164Z,83.51
2018-07-21T09:50:28.131Z,84.18
2018-07-21T09:51:28.082Z,83.98
2018-07-21T09:52:28.024Z,83.98
2018-07-21T09:53:27.993Z,84.08
2018-07-21T09:54:27.935Z,84.66
2018-07-21T09:55:27.884Z,84.12
2018-07-21T09:56:27.848Z,83.54
2018-07-21T09:57:27.800Z,83.16
2018-07-21T09:58:27.755Z,83.07
2018-07-21T09:59:27.721Z,82.97
2018-07-21T10:00:27.680Z,82.59
2018-07-21T10:01:27.644Z,82.68
2018-07-21T10:02:27.555Z,82.40
2018-07-21T10:03:27.523Z,82.49
2018-07-21T10:04:27.481Z,83.16
2018-07-21T10:05:27.435Z,82.93
2018-07-21T10:06:27.385Z,83.60
2018-07-21T10:07:27.328Z,83.31
2018-07-21T10:08:27.280Z,84.18
2018-07-21T10:09:27.242Z,85.14
2018-07-21T10:10:27.206Z,85.24
2018-07-21T10:11:27.150Z,85.14
2018-07-21T10:12:27.097Z,84.75
2018-07-21T10:13:27.057Z,84.37
2018-07-21T10:14:27.017Z,85.14
2018-07-21T10:15:27.015Z,85.24
2018-07-21T10:16:26.911Z,85.91
2018-07-21T10:17:26.874Z,85.04
2018-07-21T10:18:26.823Z,84.37
2018-07-21T10:19:26.781Z,84.27
2018-07-21T10:20:26.741Z,83.98
2018-07-21T10:21:26.668Z,83.98
2018-07-21T10:22:26.661Z,84.12
2018-07-21T10:23:26.590Z,83.84
2018-07-21T10:24:26.551Z,83.74
2018-07-21T10:25:26.509Z,82.97
2018-07-21T10:26:26.436Z,83.07
2018-07-21T10:27:26.414Z,82.87
2018-07-21T10:28:26.434Z,82.78
2018-07-21T10:29:26.338Z,82.87
2018-07-21T10:30:26.275Z,82.97
2018-07-21T10:31:26.222Z,83.54
2018-07-21T10:32:26.196Z,83.07
2018-07-21T10:33:26.250Z,82.59
2018-07-21T10:34:26.090Z,82.24
2018-07-21T10:35:26.047Z,81.82
2018-07-21T10:36:26.004Z,81.86
2018-07-21T10:37:25.948Z,80.99
2018-07-21T10:38:25.926Z,80.84
2018-07-21T10:39:25.874Z,80.36
2018-07-21T10:40:25.862Z,79.88
2018-07-21T10:41:25.774Z,78.96
2018-07-21T10:42:25.734Z,78.00
2018-07-21T10:43:25.690Z,77.51
2018-07-21T10:44:25.712Z,76.59
2018-07-21T10:45:25.577Z,76.01
2018-07-21T10:46:25.566Z,75.76
2018-07-21T10:47:25.529Z,75.19
2018-07-21T10:48:25.481Z,74.51
2018-07-21T10:49:25.430Z,74.32
2018-07-21T10:50:25.393Z,73.39
2018-07-21T10:51:25.357Z,73.30
2018-07-21T10:52:25.316Z,72.72
2018-07-21T10:53:25.266Z,71.85
2018-07-21T10:54:25.215Z,72.14
2018-07-21T10:55:25.193Z,71.98
2018-07-21T10:56:25.145Z,72.47
2018-07-21T10:57:25.102Z,71.02
2018-07-21T10:58:25.056Z,71.22
2018-07-21T10:59:25.026Z,71.60
2018-07-21T11:00:25.096Z,71.41
2018-07-21T11:01:24.942Z,71.12
2018-07-21T11:02:24.902Z,71.15
2018-07-21T11:03:24.868Z,69.90
2018-07-21T11:04:24.832Z,69.07
2018-07-21T11:05:24.777Z,69.35
2018-07-21T11:06:24.739Z,69.07
2018-07-21T11:07:24.718Z,68.97
2018-07-21T11:08:24.669Z,68.77
2018-07-21T11:09:24.635Z,68.91
2018-07-21T11:10:24.593Z,68.33
2018-07-21T11:11:24.561Z,68.52
2018-07-21T11:12:24.512Z,68.43
2018-07-21T11:13:24.481Z,69.10
2018-07-21T11:14:24.429Z,69.26
2018-07-21T11:15:24.474Z,70.80
2018-07-21T11:16:24.360Z,70.00
2018-07-21T11:17:24.321Z,70.22
2018-07-21T11:18:24.274Z,69.26
2018-07-21T11:19:24.248Z,69.74
2018-07-21T11:20:24.209Z,68.74
2018-07-21T11:21:24.181Z,68.49
2018-07-21T11:22:24.119Z,68.19
2018-07-21T11:23:24.085Z,69.64
2018-07-21T11:24:24.028Z,69.26
2018-07-21T11:25:24.005Z,69.80
2018-07-21T11:26:23.963Z,68.77
2018-07-21T11:27:23.932Z,68.19
2018-07-21T11:28:23.879Z,68.77
2018-07-21T11:29:23.829Z,68.93
2018-07-21T11:30:23.793Z,68.55
2018-07-21T11:31:23.756Z,68.59
2018-07-21T11:32:23.714Z,68.55
2018-07-21T11:33:23.675Z,68.55
2018-07-21T11:34:23.621Z,67.88
2018-07-21T11:35:23.791Z,67.78
2018-07-21T11:36:23.559Z,67.88
2018-07-21T11:37:23.510Z,68.93
2018-07-21T11:38:23.436Z,69.42
2018-07-21T11:39:23.415Z,69.29
2018-07-21T11:40:23.372Z,69.29
2018-07-21T11:41:23.310Z,68.99
2018-07-21T11:42:34.980Z,68.80
2018-07-21T11:43:35.039Z,68.80
2018-07-21T11:44:35.084Z,68.16
2018-07-21T11:45:34.946Z,67.78
2018-07-21T11:46:34.889Z,68.26
2018-07-21T11:47:34.869Z,68.74
2018-07-21T11:48:34.814Z,68.65
2018-07-21T11:49:34.773Z,67.49
2018-07-21T11:50:34.740Z,67.30
2018-07-21T11:51:34.696Z,67.58
2018-07-21T11:52:34.624Z,67.78
2018-07-21T11:53:34.598Z,67.40
2018-07-21T11:54:34.553Z,67.30
2018-07-21T11:55:34.494Z,67.49
2018-07-21T11:56:34.476Z,67.49
2018-07-21T11:57:34.423Z,66.43
2018-07-21T11:58:34.378Z,67.49
2018-07-21T11:59:34.347Z,67.49
2018-07-21T12:00:34.295Z,67.30
2018-07-21T12:01:34.240Z,66.91
2018-07-21T12:02:34.206Z,66.33
2018-07-21T12:03:34.163Z,67.14
2018-07-21T12:04:34.113Z,66.94
2018-07-21T12:05:34.091Z,66.17
2018-07-21T12:06:34.048Z,65.98
2018-07-21T12:07:30.600Z,66.33
2018-07-21T12:08:30.675Z,66.52
2018-07-21T12:09:30.631Z,66.33
2018-07-21T12:10:30.589Z,66.52
2018-07-21T12:11:30.530Z,66.27
2018-07-21T12:12:30.487Z,66.36
2018-07-21T12:13:30.531Z,66.56
2018-07-21T12:14:30.401Z,66.66
2018-07-21T12:15:30.357Z,66.56
2018-07-21T12:16:30.308Z,65.63
2018-07-21T12:17:30.263Z,65.72
2018-07-21T12:18:30.224Z,65.43
2018-07-21T12:19:30.173Z,65.63
2018-07-21T12:20:30.138Z,66.78
2018-07-21T12:21:30.093Z,66.59
2018-07-21T12:22:30.054Z,66.40
2018-07-21T12:23:30.012Z,66.01
2018-07-21T12:24:29.967Z,65.14
2018-07-21T12:25:29.895Z,65.34
2018-07-21T12:26:29.883Z,63.98
2018-07-21T12:27:29.841Z,64.18
2018-07-21T12:28:29.784Z,63.79
2018-07-21T12:29:29.737Z,63.79
2018-07-21T12:30:29.695Z,63.89
2018-07-21T12:31:29.661Z,63.43
2018-07-21T12:32:29.607Z,63.34
2018-07-21T12:33:29.573Z,63.05
2018-07-21T12:34:29.526Z,63.05
2018-07-21T12:35:29.474Z,62.76
2018-07-21T12:36:29.431Z,62.95
2018-07-21T12:37:29.405Z,63.73
2018-07-21T12:38:29.336Z,64.21
2018-07-21T12:39:29.309Z,63.53
2018-07-21T12:40:29.265Z,62.76
2018-07-21T12:41:29.221Z,62.40
2018-07-21T12:42:29.162Z,62.21
2018-07-21T12:43:29.140Z,61.83
2018-07-21T12:44:29.088Z,62.89
2018-07-21T12:45:29.048Z,62.50
2018-07-21T12:46:28.998Z,62.02
2018-07-21T12:47:28.966Z,61.34
2018-07-21T12:48:28.922Z,61.25
2018-07-21T12:49:28.883Z,61.25
2018-07-21T12:50:28.833Z,61.25
2018-07-21T12:51:28.786Z,61.08
2018-07-21T12:52:28.749Z,60.50
2018-07-21T12:53:28.704Z,60.41